sensor_id;sensor_type;location;lat;lon;timestamp;temperature;humidity
55213;DHT22;41083;52.932;6.674;2023-04-05T00:01:21;2.50;99.90
55213;DHT22;41083;52.932;6.674;2023-04-05T00:03:50;2.50;99.90
55213;DHT22;41083;52.932;6.674;2023-04-05T00:06:16;2.50;99.90
55213;DHT22;41083;52.932;6.674;2023-04-05T00:08:43;2.40;99.90
55213;DHT22;41083;52.932;6.674;2023-04-05T00:11:16;2.40;99.90
55213;DHT22;41083;52.932;6.674;2023-04-05T00:13:42;2.40;99.90
55213;DHT22;41083;52.932;6.674;2023-04-05T00:16:07;2.40;99.90
55213;DHT22;41083;52.932;6.674;2023-04-05T00:18:33;2.30;99.90
55213;DHT22;41083;52.932;6.674;2023-04-05T00:20:59;2.30;99.90
55213;DHT22;41083;52.932;6.674;2023-04-05T00:23:25;2.20;99.90
55213;DHT22;41083;52.932;6.674;2023-04-05T00:25:51;2.20;99.90
55213;DHT22;41083;52.932;6.674;2023-04-05T00:28:17;2.20;99.90
55213;DHT22;41083;52.932;6.674;2023-04-05T00:30:43;2.20;99.90
55213;DHT22;41083;52.932;6.674;2023-04-05T00:33:08;2.20;99.90
55213;DHT22;41083;52.932;6.674;2023-04-05T00:35:36;2.20;99.90
55213;DHT22;41083;52.932;6.674;2023-04-05T00:38:01;2.10;99.90
55213;DHT22;41083;52.932;6.674;2023-04-05T00:40:27;2.10;99.90
55213;DHT22;41083;52.932;6.674;2023-04-05T00:42:52;2.10;99.90
55213;DHT22;41083;52.932;6.674;2023-04-05T00:45:18;2.00;99.90
55213;DHT22;41083;52.932;6.674;2023-04-05T00:47:44;2.00;99.90
55213;DHT22;41083;52.932;6.674;2023-04-05T00:50:10;1.90;99.90
55213;DHT22;41083;52.932;6.674;2023-04-05T00:52:36;1.90;99.90
55213;DHT22;41083;52.932;6.674;2023-04-05T00:55:06;1.90;99.90
55213;DHT22;41083;52.932;6.674;2023-04-05T00:57:33;1.90;99.90
55213;DHT22;41083;52.932;6.674;2023-04-05T01:00:00;1.80;99.90
55213;DHT22;41083;52.932;6.674;2023-04-05T01:02:34;1.90;99.90
55213;DHT22;41083;52.932;6.674;2023-04-05T01:05:10;1.90;99.90
55213;DHT22;41083;52.932;6.674;2023-04-05T01:07:42;1.90;99.90
55213;DHT22;41083;52.932;6.674;2023-04-05T01:10:12;1.90;99.90
55213;DHT22;41083;52.932;6.674;2023-04-05T01:12:38;1.90;99.90
55213;DHT22;41083;52.932;6.674;2023-04-05T01:15:04;1.90;99.90
55213;DHT22;41083;52.932;6.674;2023-04-05T01:17:31;1.80;99.90
55213;DHT22;41083;52.932;6.674;2023-04-05T01:20:08;1.80;99.90
55213;DHT22;41083;52.932;6.674;2023-04-05T01:31:05;1.80;99.90
55213;DHT22;41083;52.932;6.674;2023-04-05T01:33:33;1.80;99.90
55213;DHT22;41083;52.932;6.674;2023-04-05T01:36:26;1.80;99.90
55213;DHT22;41083;52.932;6.674;2023-04-05T01:38:57;1.80;99.90
55213;DHT22;41083;52.932;6.674;2023-04-05T01:41:23;1.80;99.90
55213;DHT22;41083;52.932;6.674;2023-04-05T01:43:50;1.70;99.90
55213;DHT22;41083;52.932;6.674;2023-04-05T01:46:16;1.60;99.90
55213;DHT22;41083;52.932;6.674;2023-04-05T01:48:41;1.60;99.90
55213;DHT22;41083;52.932;6.674;2023-04-05T01:51:07;1.50;99.90
55213;DHT22;41083;52.932;6.674;2023-04-05T01:53:32;1.50;99.90
55213;DHT22;41083;52.932;6.674;2023-04-05T01:56:01;1.50;99.90
55213;DHT22;41083;52.932;6.674;2023-04-05T01:58:27;1.50;99.90
55213;DHT22;41083;52.932;6.674;2023-04-05T02:00:54;1.50;99.90
55213;DHT22;41083;52.932;6.674;2023-04-05T02:03:21;1.40;99.90
55213;DHT22;41083;52.932;6.674;2023-04-05T02:05:47;1.40;99.90
55213;DHT22;41083;52.932;6.674;2023-04-05T02:08:13;1.40;99.90
55213;DHT22;41083;52.932;6.674;2023-04-05T02:10:39;1.40;99.90
55213;DHT22;41083;52.932;6.674;2023-04-05T02:13:05;1.40;99.90
55213;DHT22;41083;52.932;6.674;2023-04-05T02:15:31;1.40;99.90
55213;DHT22;41083;52.932;6.674;2023-04-05T02:18:00;1.40;99.90
55213;DHT22;41083;52.932;6.674;2023-04-05T02:20:27;1.40;99.90
55213;DHT22;41083;52.932;6.674;2023-04-05T02:22:53;1.40;99.90
55213;DHT22;41083;52.932;6.674;2023-04-05T02:25:19;1.40;99.90
55213;DHT22;41083;52.932;6.674;2023-04-05T02:27:45;1.40;99.90
55213;DHT22;41083;52.932;6.674;2023-04-05T02:30:11;1.40;99.90
55213;DHT22;41083;52.932;6.674;2023-04-05T02:32:41;1.30;99.90
55213;DHT22;41083;52.932;6.674;2023-04-05T02:35:08;1.40;99.90
55213;DHT22;41083;52.932;6.674;2023-04-05T02:37:34;1.30;99.90
55213;DHT22;41083;52.932;6.674;2023-04-05T02:40:00;1.40;99.90
55213;DHT22;41083;52.932;6.674;2023-04-05T02:42:25;1.40;99.90
55213;DHT22;41083;52.932;6.674;2023-04-05T02:44:52;1.30;99.90
55213;DHT22;41083;52.932;6.674;2023-04-05T02:47:18;1.30;99.90
55213;DHT22;41083;52.932;6.674;2023-04-05T02:49:47;1.40;99.90
55213;DHT22;41083;52.932;6.674;2023-04-05T02:52:13;1.30;99.90
55213;DHT22;41083;52.932;6.674;2023-04-05T02:54:39;1.30;99.90
55213;DHT22;41083;52.932;6.674;2023-04-05T02:57:05;1.30;99.90
55213;DHT22;41083;52.932;6.674;2023-04-05T02:59:35;1.20;99.90
55213;DHT22;41083;52.932;6.674;2023-04-05T03:02:01;1.20;99.90
55213;DHT22;41083;52.932;6.674;2023-04-05T03:04:27;1.20;99.90
55213;DHT22;41083;52.932;6.674;2023-04-05T03:06:52;1.10;99.90
55213;DHT22;41083;52.932;6.674;2023-04-05T03:09:20;1.00;99.90
55213;DHT22;41083;52.932;6.674;2023-04-05T03:11:45;1.00;99.90
55213;DHT22;41083;52.932;6.674;2023-04-05T03:14:11;1.00;99.90
55213;DHT22;41083;52.932;6.674;2023-04-05T03:16:37;0.90;99.90
55213;DHT22;41083;52.932;6.674;2023-04-05T03:19:05;0.90;99.90
55213;DHT22;41083;52.932;6.674;2023-04-05T03:21:31;1.00;99.90
55213;DHT22;41083;52.932;6.674;2023-04-05T03:23:58;0.90;99.90
55213;DHT22;41083;52.932;6.674;2023-04-05T03:26:24;1.00;99.90
55213;DHT22;41083;52.932;6.674;2023-04-05T03:28:50;1.00;99.90
55213;DHT22;41083;52.932;6.674;2023-04-05T03:31:16;0.90;99.90
55213;DHT22;41083;52.932;6.674;2023-04-05T03:33:42;0.90;99.90
55213;DHT22;41083;52.932;6.674;2023-04-05T03:36:07;0.90;99.90
55213;DHT22;41083;52.932;6.674;2023-04-05T03:38:33;0.90;99.90
55213;DHT22;41083;52.932;6.674;2023-04-05T03:41:00;0.80;99.90
55213;DHT22;41083;52.932;6.674;2023-04-05T03:43:26;0.80;99.90
55213;DHT22;41083;52.932;6.674;2023-04-05T03:45:52;0.80;99.90
55213;DHT22;41083;52.932;6.674;2023-04-05T03:48:17;0.70;99.90
55213;DHT22;41083;52.932;6.674;2023-04-05T03:50:47;0.70;99.90
55213;DHT22;41083;52.932;6.674;2023-04-05T03:53:13;0.70;99.90
55213;DHT22;41083;52.932;6.674;2023-04-05T03:55:41;0.60;99.90
55213;DHT22;41083;52.932;6.674;2023-04-05T03:58:15;0.60;99.90
55213;DHT22;41083;52.932;6.674;2023-04-05T04:00:41;0.60;99.90
55213;DHT22;41083;52.932;6.674;2023-04-05T04:03:06;0.60;99.90
55213;DHT22;41083;52.932;6.674;2023-04-05T04:05:34;0.60;99.90
55213;DHT22;41083;52.932;6.674;2023-04-05T04:08:04;0.70;99.90
55213;DHT22;41083;52.932;6.674;2023-04-05T04:10:30;0.70;99.90
55213;DHT22;41083;52.932;6.674;2023-04-05T04:12:56;0.70;99.90
55213;DHT22;41083;52.932;6.674;2023-04-05T04:15:22;0.70;99.90
55213;DHT22;41083;52.932;6.674;2023-04-05T04:17:47;0.70;99.90
55213;DHT22;41083;52.932;6.674;2023-04-05T04:20:13;0.70;99.90
55213;DHT22;41083;52.932;6.674;2023-04-05T04:22:39;0.70;99.90
55213;DHT22;41083;52.932;6.674;2023-04-05T04:25:10;0.60;99.90
55213;DHT22;41083;52.932;6.674;2023-04-05T04:27:41;0.70;99.90
55213;DHT22;41083;52.932;6.674;2023-04-05T04:30:11;0.70;99.90
55213;DHT22;41083;52.932;6.674;2023-04-05T04:32:38;0.70;99.90
55213;DHT22;41083;52.932;6.674;2023-04-05T04:35:24;0.70;99.90
55213;DHT22;41083;52.932;6.674;2023-04-05T04:37:55;0.60;99.90
55213;DHT22;41083;52.932;6.674;2023-04-05T04:40:23;0.60;99.90
55213;DHT22;41083;52.932;6.674;2023-04-05T04:42:50;0.60;99.90
55213;DHT22;41083;52.932;6.674;2023-04-05T04:45:17;0.50;99.90
55213;DHT22;41083;52.932;6.674;2023-04-05T04:47:47;0.50;99.90
55213;DHT22;41083;52.932;6.674;2023-04-05T04:50:14;0.60;99.90
55213;DHT22;41083;52.932;6.674;2023-04-05T04:52:40;0.60;99.90
55213;DHT22;41083;52.932;6.674;2023-04-05T04:55:08;0.60;99.90
55213;DHT22;41083;52.932;6.674;2023-04-05T04:57:34;0.60;99.90
55213;DHT22;41083;52.932;6.674;2023-04-05T05:00:00;0.60;99.90
55213;DHT22;41083;52.932;6.674;2023-04-05T05:02:26;0.50;99.90
55213;DHT22;41083;52.932;6.674;2023-04-05T05:04:52;0.50;99.90
55213;DHT22;41083;52.932;6.674;2023-04-05T05:07:19;0.40;99.90
55213;DHT22;41083;52.932;6.674;2023-04-05T05:09:45;0.40;99.90
55213;DHT22;41083;52.932;6.674;2023-04-05T05:12:12;0.40;99.90
55213;DHT22;41083;52.932;6.674;2023-04-05T05:14:38;0.40;99.90
55213;DHT22;41083;52.932;6.674;2023-04-05T05:17:04;0.40;99.90
55213;DHT22;41083;52.932;6.674;2023-04-05T05:19:30;0.40;99.90
55213;DHT22;41083;52.932;6.674;2023-04-05T05:21:57;0.40;99.90
55213;DHT22;41083;52.932;6.674;2023-04-05T05:24:22;0.40;99.90
55213;DHT22;41083;52.932;6.674;2023-04-05T05:26:49;0.40;99.90
55213;DHT22;41083;52.932;6.674;2023-04-05T05:29:15;0.30;99.90
55213;DHT22;41083;52.932;6.674;2023-04-05T05:31:40;0.20;99.90
55213;DHT22;41083;52.932;6.674;2023-04-05T05:34:06;0.20;99.90
55213;DHT22;41083;52.932;6.674;2023-04-05T05:36:32;0.20;99.90
55213;DHT22;41083;52.932;6.674;2023-04-05T05:38:57;0.20;99.90
55213;DHT22;41083;52.932;6.674;2023-04-05T05:41:23;0.20;99.90
55213;DHT22;41083;52.932;6.674;2023-04-05T05:43:49;0.20;99.90
55213;DHT22;41083;52.932;6.674;2023-04-05T05:46:14;0.20;99.90
55213;DHT22;41083;52.932;6.674;2023-04-05T05:48:40;0.20;99.90
55213;DHT22;41083;52.932;6.674;2023-04-05T05:51:06;0.20;99.90
55213;DHT22;41083;52.932;6.674;2023-04-05T05:53:39;0.30;99.90
55213;DHT22;41083;52.932;6.674;2023-04-05T05:56:05;0.30;99.90
55213;DHT22;41083;52.932;6.674;2023-04-05T05:58:31;0.30;99.90
55213;DHT22;41083;52.932;6.674;2023-04-05T06:00:57;0.40;99.90
55213;DHT22;41083;52.932;6.674;2023-04-05T06:03:23;0.50;99.90
55213;DHT22;41083;52.932;6.674;2023-04-05T06:05:59;0.50;99.90
55213;DHT22;41083;52.932;6.674;2023-04-05T06:08:27;0.50;99.90
55213;DHT22;41083;52.932;6.674;2023-04-05T06:10:53;0.50;99.90
55213;DHT22;41083;52.932;6.674;2023-04-05T06:13:19;0.50;99.90
55213;DHT22;41083;52.932;6.674;2023-04-05T06:15:46;0.50;99.90
55213;DHT22;41083;52.932;6.674;2023-04-05T06:18:12;0.60;99.90
55213;DHT22;41083;52.932;6.674;2023-04-05T06:20:38;0.60;99.90
55213;DHT22;41083;52.932;6.674;2023-04-05T06:23:06;0.70;99.90
55213;DHT22;41083;52.932;6.674;2023-04-05T06:25:32;0.70;99.90
55213;DHT22;41083;52.932;6.674;2023-04-05T06:27:57;0.80;99.90
55213;DHT22;41083;52.932;6.674;2023-04-05T06:30:23;0.90;99.90
55213;DHT22;41083;52.932;6.674;2023-04-05T06:32:48;0.90;99.90
55213;DHT22;41083;52.932;6.674;2023-04-05T06:35:19;1.00;99.90
55213;DHT22;41083;52.932;6.674;2023-04-05T06:37:44;1.00;99.90
55213;DHT22;41083;52.932;6.674;2023-04-05T06:40:10;1.00;99.90
55213;DHT22;41083;52.932;6.674;2023-04-05T06:42:36;1.10;99.90
55213;DHT22;41083;52.932;6.674;2023-04-05T06:45:03;1.20;99.90
55213;DHT22;41083;52.932;6.674;2023-04-05T06:47:32;1.20;99.90
55213;DHT22;41083;52.932;6.674;2023-04-05T06:49:57;1.20;99.90
55213;DHT22;41083;52.932;6.674;2023-04-05T06:52:23;1.20;99.90
55213;DHT22;41083;52.932;6.674;2023-04-05T06:54:49;1.30;99.90
55213;DHT22;41083;52.932;6.674;2023-04-05T06:57:14;1.30;99.90
55213;DHT22;41083;52.932;6.674;2023-04-05T06:59:40;1.40;99.90
55213;DHT22;41083;52.932;6.674;2023-04-05T07:02:06;1.40;99.90
55213;DHT22;41083;52.932;6.674;2023-04-05T07:04:31;1.50;99.90
55213;DHT22;41083;52.932;6.674;2023-04-05T07:07:04;1.60;99.90
55213;DHT22;41083;52.932;6.674;2023-04-05T07:09:34;1.60;99.90
55213;DHT22;41083;52.932;6.674;2023-04-05T07:12:02;1.70;99.90
55213;DHT22;41083;52.932;6.674;2023-04-05T07:14:33;1.70;99.90
55213;DHT22;41083;52.932;6.674;2023-04-05T07:16:58;1.70;99.90
55213;DHT22;41083;52.932;6.674;2023-04-05T07:19:24;1.80;99.90
55213;DHT22;41083;52.932;6.674;2023-04-05T07:21:51;1.90;99.90
55213;DHT22;41083;52.932;6.674;2023-04-05T07:24:16;2.00;99.90
55213;DHT22;41083;52.932;6.674;2023-04-05T07:26:42;2.00;99.90
55213;DHT22;41083;52.932;6.674;2023-04-05T07:29:09;2.10;99.90
55213;DHT22;41083;52.932;6.674;2023-04-05T07:31:35;2.10;99.90
55213;DHT22;41083;52.932;6.674;2023-04-05T07:34:01;2.20;99.90
55213;DHT22;41083;52.932;6.674;2023-04-05T07:36:27;2.30;99.90
55213;DHT22;41083;52.932;6.674;2023-04-05T07:38:58;2.30;99.90
55213;DHT22;41083;52.932;6.674;2023-04-05T07:41:25;2.40;99.90
55213;DHT22;41083;52.932;6.674;2023-04-05T07:43:52;2.50;99.90
55213;DHT22;41083;52.932;6.674;2023-04-05T07:46:18;2.50;99.90
55213;DHT22;41083;52.932;6.674;2023-04-05T07:48:46;2.60;99.90
55213;DHT22;41083;52.932;6.674;2023-04-05T07:51:13;2.60;99.90
55213;DHT22;41083;52.932;6.674;2023-04-05T07:53:38;2.70;99.90
55213;DHT22;41083;52.932;6.674;2023-04-05T07:56:13;2.80;99.90
55213;DHT22;41083;52.932;6.674;2023-04-05T07:58:39;2.80;99.90
55213;DHT22;41083;52.932;6.674;2023-04-05T08:01:07;2.90;99.90
55213;DHT22;41083;52.932;6.674;2023-04-05T08:03:33;2.90;99.90
55213;DHT22;41083;52.932;6.674;2023-04-05T08:06:14;3.00;99.90
55213;DHT22;41083;52.932;6.674;2023-04-05T08:08:46;3.00;99.90
55213;DHT22;41083;52.932;6.674;2023-04-05T08:11:12;3.10;99.90
55213;DHT22;41083;52.932;6.674;2023-04-05T08:13:38;3.10;99.90
55213;DHT22;41083;52.932;6.674;2023-04-05T08:16:08;3.20;99.90
55213;DHT22;41083;52.932;6.674;2023-04-05T08:18:34;3.30;99.90
55213;DHT22;41083;52.932;6.674;2023-04-05T08:20:59;3.40;99.90
55213;DHT22;41083;52.932;6.674;2023-04-05T08:23:25;3.40;99.90
55213;DHT22;41083;52.932;6.674;2023-04-05T08:25:52;3.50;99.90
55213;DHT22;41083;52.932;6.674;2023-04-05T08:28:18;3.50;99.90
55213;DHT22;41083;52.932;6.674;2023-04-05T08:30:44;3.60;99.90
55213;DHT22;41083;52.932;6.674;2023-04-05T08:33:11;3.70;99.90
55213;DHT22;41083;52.932;6.674;2023-04-05T08:35:38;3.70;99.90
55213;DHT22;41083;52.932;6.674;2023-04-05T08:38:05;3.80;99.90
55213;DHT22;41083;52.932;6.674;2023-04-05T08:40:39;3.90;99.90
55213;DHT22;41083;52.932;6.674;2023-04-05T08:45:37;4.00;99.90
55213;DHT22;41083;52.932;6.674;2023-04-05T08:48:05;4.10;99.90
55213;DHT22;41083;52.932;6.674;2023-04-05T08:50:31;4.20;99.90
55213;DHT22;41083;52.932;6.674;2023-04-05T08:52:56;4.30;99.90
55213;DHT22;41083;52.932;6.674;2023-04-05T08:55:22;4.30;99.90
55213;DHT22;41083;52.932;6.674;2023-04-05T08:57:52;4.40;99.90
55213;DHT22;41083;52.932;6.674;2023-04-05T09:00:23;4.50;99.90
55213;DHT22;41083;52.932;6.674;2023-04-05T09:02:53;4.50;99.90
55213;DHT22;41083;52.932;6.674;2023-04-05T09:05:22;4.60;99.90
55213;DHT22;41083;52.932;6.674;2023-04-05T09:07:49;4.60;99.90
55213;DHT22;41083;52.932;6.674;2023-04-05T09:10:18;4.70;99.90
55213;DHT22;41083;52.932;6.674;2023-04-05T09:12:44;4.70;99.90
55213;DHT22;41083;52.932;6.674;2023-04-05T09:15:10;4.80;99.90
55213;DHT22;41083;52.932;6.674;2023-04-05T09:17:38;4.90;99.90
55213;DHT22;41083;52.932;6.674;2023-04-05T09:20:06;5.00;99.90
55213;DHT22;41083;52.932;6.674;2023-04-05T09:22:44;5.00;99.90
55213;DHT22;41083;52.932;6.674;2023-04-05T09:25:11;5.00;99.90
55213;DHT22;41083;52.932;6.674;2023-04-05T09:27:53;5.10;99.90
55213;DHT22;41083;52.932;6.674;2023-04-05T09:30:22;5.10;99.30
55213;DHT22;41083;52.932;6.674;2023-04-05T09:32:50;5.10;99.60
55213;DHT22;41083;52.932;6.674;2023-04-05T09:35:28;5.20;99.60
55213;DHT22;41083;52.932;6.674;2023-04-05T09:38:01;5.30;99.00
55213;DHT22;41083;52.932;6.674;2023-04-05T09:40:47;5.20;98.40
55213;DHT22;41083;52.932;6.674;2023-04-05T09:43:39;5.30;97.50
55213;DHT22;41083;52.932;6.674;2023-04-05T09:46:05;5.30;97.20
55213;DHT22;41083;52.932;6.674;2023-04-05T09:48:47;5.40;98.10
55213;DHT22;41083;52.932;6.674;2023-04-05T09:51:16;5.50;97.10
55213;DHT22;41083;52.932;6.674;2023-04-05T09:54:05;5.60;97.50
55213;DHT22;41083;52.932;6.674;2023-04-05T09:56:38;5.50;97.00
55213;DHT22;41083;52.932;6.674;2023-04-05T09:59:09;5.60;97.20
55213;DHT22;41083;52.932;6.674;2023-04-05T10:01:36;5.60;97.20
55213;DHT22;41083;52.932;6.674;2023-04-05T10:04:02;5.60;97.30
55213;DHT22;41083;52.932;6.674;2023-04-05T10:06:39;5.60;96.60
55213;DHT22;41083;52.932;6.674;2023-04-05T10:09:05;5.70;96.20
55213;DHT22;41083;52.932;6.674;2023-04-05T10:11:32;5.70;96.30
55213;DHT22;41083;52.932;6.674;2023-04-05T10:14:00;5.70;95.90
55213;DHT22;41083;52.932;6.674;2023-04-05T10:16:27;5.80;95.60
55213;DHT22;41083;52.932;6.674;2023-04-05T10:18:54;5.80;94.80
55213;DHT22;41083;52.932;6.674;2023-04-05T10:21:27;5.90;95.10
55213;DHT22;41083;52.932;6.674;2023-04-05T10:24:38;5.90;95.00
55213;DHT22;41083;52.932;6.674;2023-04-05T10:27:09;6.00;94.50
55213;DHT22;41083;52.932;6.674;2023-04-05T10:30:07;6.10;95.20
55213;DHT22;41083;52.932;6.674;2023-04-05T10:35:43;6.30;94.70
55213;DHT22;41083;52.932;6.674;2023-04-05T10:38:27;6.40;91.80
55213;DHT22;41083;52.932;6.674;2023-04-05T10:41:08;6.40;92.70
55213;DHT22;41083;52.932;6.674;2023-04-05T10:43:36;6.30;92.80
55213;DHT22;41083;52.932;6.674;2023-04-05T10:46:06;6.30;92.70
55213;DHT22;41083;52.932;6.674;2023-04-05T10:48:58;6.30;92.80
55213;DHT22;41083;52.932;6.674;2023-04-05T10:53:59;6.40;91.70
55213;DHT22;41083;52.932;6.674;2023-04-05T10:56:25;6.30;92.30
55213;DHT22;41083;52.932;6.674;2023-04-05T10:58:52;6.40;92.20
55213;DHT22;41083;52.932;6.674;2023-04-05T11:01:19;6.40;92.30
55213;DHT22;41083;52.932;6.674;2023-04-05T11:03:50;6.40;92.20
55213;DHT22;41083;52.932;6.674;2023-04-05T11:08:46;6.50;91.90
55213;DHT22;41083;52.932;6.674;2023-04-05T11:11:17;6.50;91.80
55213;DHT22;41083;52.932;6.674;2023-04-05T11:13:50;6.60;91.20
55213;DHT22;41083;52.932;6.674;2023-04-05T11:16:16;6.60;89.60
55213;DHT22;41083;52.932;6.674;2023-04-05T11:18:46;6.60;90.50
55213;DHT22;41083;52.932;6.674;2023-04-05T11:21:22;6.70;90.70
55213;DHT22;41083;52.932;6.674;2023-04-05T11:24:14;6.70;90.80
55213;DHT22;41083;52.932;6.674;2023-04-05T11:29:14;6.80;89.70
55213;DHT22;41083;52.932;6.674;2023-04-05T11:32:00;6.80;90.60
55213;DHT22;41083;52.932;6.674;2023-04-05T11:34:34;6.80;87.80
55213;DHT22;41083;52.932;6.674;2023-04-05T11:37:00;6.70;89.60
55213;DHT22;41083;52.932;6.674;2023-04-05T11:39:26;6.70;90.70
55213;DHT22;41083;52.932;6.674;2023-04-05T11:42:04;6.70;90.00
55213;DHT22;41083;52.932;6.674;2023-04-05T11:44:42;6.80;89.30
55213;DHT22;41083;52.932;6.674;2023-04-05T11:47:09;6.80;86.90
55213;DHT22;41083;52.932;6.674;2023-04-05T11:49:36;6.80;88.90
55213;DHT22;41083;52.932;6.674;2023-04-05T11:52:11;6.80;89.20
55213;DHT22;41083;52.932;6.674;2023-04-05T11:54:37;6.80;86.50
55213;DHT22;41083;52.932;6.674;2023-04-05T11:57:04;6.80;88.30
55213;DHT22;41083;52.932;6.674;2023-04-05T11:59:32;6.90;87.50
55213;DHT22;41083;52.932;6.674;2023-04-05T12:01:59;6.90;85.60
55213;DHT22;41083;52.932;6.674;2023-04-05T12:04:25;6.90;86.40
55213;DHT22;41083;52.932;6.674;2023-04-05T12:07:14;6.90;86.00
55213;DHT22;41083;52.932;6.674;2023-04-05T12:10:07;7.00;83.30
55213;DHT22;41083;52.932;6.674;2023-04-05T12:12:38;7.00;85.10
55213;DHT22;41083;52.932;6.674;2023-04-05T12:15:06;7.00;85.80
55213;DHT22;41083;52.932;6.674;2023-04-05T12:17:48;7.00;85.80
55213;DHT22;41083;52.932;6.674;2023-04-05T12:20:16;7.10;87.70
55213;DHT22;41083;52.932;6.674;2023-04-05T12:22:45;7.10;88.50
55213;DHT22;41083;52.932;6.674;2023-04-05T12:25:13;7.20;86.10
55213;DHT22;41083;52.932;6.674;2023-04-05T12:27:40;7.20;85.20
55213;DHT22;41083;52.932;6.674;2023-04-05T12:30:18;7.20;86.40
55213;DHT22;41083;52.932;6.674;2023-04-05T12:32:52;7.30;84.50
55213;DHT22;41083;52.932;6.674;2023-04-05T12:35:28;7.30;81.70
55213;DHT22;41083;52.932;6.674;2023-04-05T12:38:03;7.30;83.20
55213;DHT22;41083;52.932;6.674;2023-04-05T12:40:33;7.30;83.40
55213;DHT22;41083;52.932;6.674;2023-04-05T12:43:04;7.30;82.10
55213;DHT22;41083;52.932;6.674;2023-04-05T12:45:31;7.20;82.10
55213;DHT22;41083;52.932;6.674;2023-04-05T12:48:07;7.30;83.80
55213;DHT22;41083;52.932;6.674;2023-04-05T12:50:34;7.30;80.00
55213;DHT22;41083;52.932;6.674;2023-04-05T12:53:06;7.30;80.80
55213;DHT22;41083;52.932;6.674;2023-04-05T12:55:41;7.30;81.30
55213;DHT22;41083;52.932;6.674;2023-04-05T12:58:07;7.40;83.40
55213;DHT22;41083;52.932;6.674;2023-04-05T13:00:32;7.40;82.00
55213;DHT22;41083;52.932;6.674;2023-04-05T13:02:58;7.50;82.80
55213;DHT22;41083;52.932;6.674;2023-04-05T13:05:26;7.50;83.80
55213;DHT22;41083;52.932;6.674;2023-04-05T13:07:52;7.70;84.20
55213;DHT22;41083;52.932;6.674;2023-04-05T13:10:19;7.80;85.10
55213;DHT22;41083;52.932;6.674;2023-04-05T13:12:46;7.90;80.40
55213;DHT22;41083;52.932;6.674;2023-04-05T13:15:12;7.80;79.80
55213;DHT22;41083;52.932;6.674;2023-04-05T13:17:39;7.80;80.00
55213;DHT22;41083;52.932;6.674;2023-04-05T13:20:06;7.70;81.50
55213;DHT22;41083;52.932;6.674;2023-04-05T13:22:32;7.70;81.40
55213;DHT22;41083;52.932;6.674;2023-04-05T13:24:57;7.80;80.40
55213;DHT22;41083;52.932;6.674;2023-04-05T13:27:23;7.80;80.70
55213;DHT22;41083;52.932;6.674;2023-04-05T13:29:48;7.70;79.60
55213;DHT22;41083;52.932;6.674;2023-04-05T13:32:14;7.70;78.50
55213;DHT22;41083;52.932;6.674;2023-04-05T13:34:40;7.70;80.80
55213;DHT22;41083;52.932;6.674;2023-04-05T13:37:05;7.70;81.50
55213;DHT22;41083;52.932;6.674;2023-04-05T13:39:31;7.80;82.20
55213;DHT22;41083;52.932;6.674;2023-04-05T13:41:57;7.80;81.30
55213;DHT22;41083;52.932;6.674;2023-04-05T13:44:23;7.90;81.40
55213;DHT22;41083;52.932;6.674;2023-04-05T13:46:49;7.90;81.90
55213;DHT22;41083;52.932;6.674;2023-04-05T13:49:14;8.00;81.40
55213;DHT22;41083;52.932;6.674;2023-04-05T13:51:40;8.00;81.10
55213;DHT22;41083;52.932;6.674;2023-04-05T13:54:09;8.00;80.30
55213;DHT22;41083;52.932;6.674;2023-04-05T13:56:39;8.00;78.70
55213;DHT22;41083;52.932;6.674;2023-04-05T13:59:05;8.00;79.20
55213;DHT22;41083;52.932;6.674;2023-04-05T14:01:33;7.90;79.10
55213;DHT22;41083;52.932;6.674;2023-04-05T14:03:59;8.00;80.00
55213;DHT22;41083;52.932;6.674;2023-04-05T14:06:24;8.00;79.80
55213;DHT22;41083;52.932;6.674;2023-04-05T14:08:51;8.00;77.60
55213;DHT22;41083;52.932;6.674;2023-04-05T14:11:20;8.00;77.50
55213;DHT22;41083;52.932;6.674;2023-04-05T14:13:47;7.90;77.00
55213;DHT22;41083;52.932;6.674;2023-04-05T14:16:13;7.90;74.60
55213;DHT22;41083;52.932;6.674;2023-04-05T14:18:39;8.00;73.20
55213;DHT22;41083;52.932;6.674;2023-04-05T14:21:05;8.00;73.70
55213;DHT22;41083;52.932;6.674;2023-04-05T14:23:30;8.00;73.60
55213;DHT22;41083;52.932;6.674;2023-04-05T14:25:56;8.00;75.20
55213;DHT22;41083;52.932;6.674;2023-04-05T14:28:22;7.90;76.60
55213;DHT22;41083;52.932;6.674;2023-04-05T14:30:48;8.00;76.00
55213;DHT22;41083;52.932;6.674;2023-04-05T14:33:14;8.00;74.60
55213;DHT22;41083;52.932;6.674;2023-04-05T14:35:41;8.00;74.80
55213;DHT22;41083;52.932;6.674;2023-04-05T14:38:06;8.00;72.90
55213;DHT22;41083;52.932;6.674;2023-04-05T14:40:32;8.00;73.70
55213;DHT22;41083;52.932;6.674;2023-04-05T14:42:58;8.00;73.30
55213;DHT22;41083;52.932;6.674;2023-04-05T14:45:23;7.90;73.60
55213;DHT22;41083;52.932;6.674;2023-04-05T14:47:53;7.90;73.40
55213;DHT22;41083;52.932;6.674;2023-04-05T14:50:18;7.90;74.00
55213;DHT22;41083;52.932;6.674;2023-04-05T14:52:44;7.90;74.70
55213;DHT22;41083;52.932;6.674;2023-04-05T14:55:11;8.00;74.20
55213;DHT22;41083;52.932;6.674;2023-04-05T14:57:41;8.00;74.00
55213;DHT22;41083;52.932;6.674;2023-04-05T15:00:08;8.00;73.10
55213;DHT22;41083;52.932;6.674;2023-04-05T15:02:35;8.00;72.20
55213;DHT22;41083;52.932;6.674;2023-04-05T15:05:01;8.00;71.70
55213;DHT22;41083;52.932;6.674;2023-04-05T15:07:27;8.00;71.40
55213;DHT22;41083;52.932;6.674;2023-04-05T15:09:53;8.00;72.00
55213;DHT22;41083;52.932;6.674;2023-04-05T15:12:19;8.00;70.60
55213;DHT22;41083;52.932;6.674;2023-04-05T15:14:44;8.00;71.00
55213;DHT22;41083;52.932;6.674;2023-04-05T15:17:11;8.00;71.10
55213;DHT22;41083;52.932;6.674;2023-04-05T15:19:36;8.00;72.00
55213;DHT22;41083;52.932;6.674;2023-04-05T15:22:02;8.00;71.80
55213;DHT22;41083;52.932;6.674;2023-04-05T15:24:28;8.00;71.80
55213;DHT22;41083;52.932;6.674;2023-04-05T15:26:54;8.00;72.60
55213;DHT22;41083;52.932;6.674;2023-04-05T15:29:26;7.90;73.00
55213;DHT22;41083;52.932;6.674;2023-04-05T15:31:52;8.00;72.60
55213;DHT22;41083;52.932;6.674;2023-04-05T15:34:18;8.00;72.60
55213;DHT22;41083;52.932;6.674;2023-04-05T15:36:43;7.90;73.20
55213;DHT22;41083;52.932;6.674;2023-04-05T15:39:09;7.90;73.20
55213;DHT22;41083;52.932;6.674;2023-04-05T15:41:34;7.90;72.40
55213;DHT22;41083;52.932;6.674;2023-04-05T15:44:00;7.90;70.60
55213;DHT22;41083;52.932;6.674;2023-04-05T15:46:26;7.90;70.30
55213;DHT22;41083;52.932;6.674;2023-04-05T15:48:53;7.90;70.70
55213;DHT22;41083;52.932;6.674;2023-04-05T15:51:18;7.90;71.40
55213;DHT22;41083;52.932;6.674;2023-04-05T15:53:44;8.00;69.70
55213;DHT22;41083;52.932;6.674;2023-04-05T15:56:10;8.00;69.60
55213;DHT22;41083;52.932;6.674;2023-04-05T15:58:36;7.90;70.30
55213;DHT22;41083;52.932;6.674;2023-04-05T16:01:02;8.00;69.70
55213;DHT22;41083;52.932;6.674;2023-04-05T16:03:27;8.00;70.30
55213;DHT22;41083;52.932;6.674;2023-04-05T16:05:53;8.00;69.50
55213;DHT22;41083;52.932;6.674;2023-04-05T16:08:19;8.00;70.20
55213;DHT22;41083;52.932;6.674;2023-04-05T16:10:44;8.00;70.20
55213;DHT22;41083;52.932;6.674;2023-04-05T16:13:10;8.00;69.20